Ceylon, Ohio
Current Conditions -  °F | °C
As of 9:24 PM on Saturday 20 Dec 2014 (Local Time) from KPCW Reporting Station
Light Snow Light Snow  
Wind Chill: 25°   Ceiling: 2600
Heat Index: 30°   Visibility: 3mi
Dew Point: 25°   Wind: 5mph
Humidity: 80%   Direction: 190°S
Pressure: 30.29"   Gusts: NA
Location:  41.3748°N, 82.5554°W
Report Text: KPCW 210224Z AUTO 19004KT 3SM -SN FEW015 SCT020 BKN026 M01/M04 A3029 RMK
Loading
Personal Weather Stations






























Interactive Weather Map New forecast layout! Learn more

10-Day Weather Forecast

Advertisements
Track Severe Weather on mobile